createdAt,value
2023-02-06T00:01:34.294Z,30.58
2023-02-06T00:04:01.340Z,26.33
2023-02-06T00:06:28.475Z,24.88
2023-02-06T00:08:55.654Z,34.30
2023-02-06T00:11:23.081Z,20.48
2023-02-06T00:13:50.069Z,34.33
2023-02-06T00:16:22.754Z,28.73
2023-02-06T00:18:50.808Z,23.08
2023-02-06T00:21:20.327Z,24.83
2023-02-06T00:23:47.518Z,26.83
2023-02-06T00:26:14.699Z,28.77
2023-02-06T00:28:41.502Z,22.45
2023-02-06T00:31:09.298Z,32.33
2023-02-06T00:33:36.693Z,24.75
2023-02-06T00:36:04.267Z,35.03
2023-02-06T00:38:31.979Z,28.60
2023-02-06T00:40:58.864Z,29.88
2023-02-06T00:43:25.756Z,27.05
2023-02-06T00:45:53.847Z,32.08
2023-02-06T00:48:20.859Z,25.17
2023-02-06T00:50:52.107Z,28.88
2023-02-06T00:53:19.347Z,31.45
2023-02-06T00:55:46.166Z,27.15
2023-02-06T00:58:13.158Z,34.92
2023-02-06T01:00:39.928Z,32.28
2023-02-06T01:03:06.780Z,35.58
2023-02-06T01:05:34.107Z,39.70
2023-02-06T01:08:03.408Z,25.75
2023-02-06T01:10:31.645Z,27.40
2023-02-06T01:12:58.705Z,37.38
2023-02-06T01:15:25.966Z,27.52
2023-02-06T01:17:53.144Z,35.47
2023-02-06T01:20:21.624Z,25.42
2023-02-06T01:22:48.767Z,30.40
2023-02-06T01:25:15.734Z,26.00
2023-02-06T01:27:42.748Z,29.10
2023-02-06T01:30:10.360Z,32.50
2023-02-06T01:32:41.571Z,29.38
2023-02-06T01:35:10.219Z,34.90
2023-02-06T01:37:37.683Z,22.85
2023-02-06T01:40:11.940Z,31.48
2023-02-06T01:42:39.380Z,26.55
2023-02-06T01:45:21.601Z,30.30
2023-02-06T01:47:52.416Z,27.63
2023-02-06T01:50:19.389Z,29.27
2023-02-06T01:52:47.415Z,33.13
2023-02-06T01:55:14.705Z,28.30
2023-02-06T01:57:42.018Z,35.50
2023-02-06T02:00:10.876Z,22.02
2023-02-06T02:02:43.046Z,30.63
2023-02-06T02:05:11.817Z,38.22
2023-02-06T02:07:46.116Z,37.40
2023-02-06T02:10:13.006Z,41.40
2023-02-06T02:12:39.898Z,46.33
2023-02-06T02:15:07.062Z,41.03
2023-02-06T02:17:56.377Z,44.75
2023-02-06T02:20:52.444Z,35.83
2023-02-06T02:23:38.042Z,37.78
2023-02-06T02:26:43.336Z,42.60
2023-02-06T02:29:31.360Z,45.65
2023-02-06T02:32:15.397Z,41.60
2023-02-06T02:34:45.015Z,34.47
2023-02-06T02:37:17.867Z,43.83
2023-02-06T02:43:01.270Z,44.95
2023-02-06T02:45:46.714Z,43.10
2023-02-06T02:48:20.742Z,45.90
2023-02-06T02:50:47.852Z,44.40
2023-02-06T02:53:14.931Z,43.60
2023-02-06T02:55:42.198Z,45.72
2023-02-06T02:58:16.724Z,37.25
2023-02-06T03:00:50.109Z,38.72
2023-02-06T03:03:22.828Z,36.45
2023-02-06T03:06:08.237Z,45.80
2023-02-06T03:08:46.506Z,48.40
2023-02-06T03:11:16.511Z,58.47
2023-02-06T03:14:09.058Z,43.42
2023-02-06T03:16:44.710Z,39.95
2023-02-06T03:19:19.094Z,54.38
2023-02-06T03:21:47.244Z,40.15
2023-02-06T03:24:26.461Z,51.65
2023-02-06T03:26:59.391Z,51.33
2023-02-06T03:29:29.181Z,51.97
2023-02-06T03:32:00.676Z,49.60
2023-02-06T03:34:51.037Z,57.30
2023-02-06T03:37:18.012Z,54.95
2023-02-06T03:39:45.003Z,50.83
2023-02-06T03:42:13.494Z,52.05
2023-02-06T03:44:45.034Z,50.10
2023-02-06T03:47:14.406Z,44.67
2023-02-06T03:49:43.648Z,52.17
2023-02-06T03:52:18.952Z,52.08
2023-02-06T03:54:51.724Z,50.75
2023-02-06T03:59:46.999Z,50.47
2023-02-06T04:02:15.947Z,40.55
2023-02-06T04:04:44.939Z,56.38
2023-02-06T04:07:30.350Z,49.40
2023-02-06T04:09:57.556Z,58.80
2023-02-06T04:12:24.724Z,55.70
2023-02-06T04:14:52.373Z,60.05
2023-02-06T04:17:38.425Z,46.10
2023-02-06T04:20:06.327Z,63.85
2023-02-06T04:22:33.601Z,53.45
2023-02-06T04:25:00.424Z,50.30
2023-02-06T04:27:27.337Z,65.28
2023-02-06T04:29:54.124Z,49.58
2023-02-06T04:32:20.985Z,55.28
2023-02-06T04:34:47.753Z,61.47
2023-02-06T04:37:14.596Z,57.67
2023-02-06T04:39:41.455Z,58.90
2023-02-06T04:42:08.645Z,60.33
2023-02-06T04:44:38.416Z,55.40
2023-02-06T04:47:06.114Z,55.83
2023-02-06T04:49:33.285Z,54.15
2023-02-06T04:52:00.121Z,64.68
2023-02-06T04:54:27.020Z,61.63
2023-02-06T04:56:53.930Z,56.80
2023-02-06T04:59:20.729Z,51.08
2023-02-06T05:01:48.321Z,73.63
2023-02-06T05:04:15.234Z,64.30
2023-02-06T05:06:42.009Z,46.00
2023-02-06T05:09:09.878Z,63.67
2023-02-06T05:11:36.831Z,59.22
2023-02-06T05:14:03.869Z,63.42
2023-02-06T05:16:30.854Z,50.08
2023-02-06T05:18:58.077Z,60.63
2023-02-06T05:21:29.100Z,62.97
2023-02-06T05:23:55.944Z,55.72
2023-02-06T05:26:23.023Z,63.78
2023-02-06T05:28:49.899Z,59.13
2023-02-06T05:31:20.052Z,41.88
2023-02-06T05:33:51.108Z,47.65
2023-02-06T05:36:19.736Z,48.23
2023-02-06T05:38:47.207Z,46.83
2023-02-06T05:41:14.343Z,55.45
2023-02-06T05:43:41.596Z,59.90
2023-02-06T05:46:08.825Z,59.72
2023-02-06T05:48:35.857Z,58.15
2023-02-06T05:51:02.743Z,66.03
2023-02-06T05:53:29.673Z,53.80
2023-02-06T05:55:57.070Z,57.25
2023-02-06T05:58:24.050Z,49.67
2023-02-06T06:00:50.872Z,54.20
2023-02-06T06:03:17.795Z,57.72
2023-02-06T06:05:45.419Z,56.75
2023-02-06T06:08:12.231Z,55.50
2023-02-06T06:10:39.017Z,51.55
2023-02-06T06:13:06.398Z,61.60
2023-02-06T06:15:33.223Z,55.58
2023-02-06T06:18:00.201Z,61.47
2023-02-06T06:20:27.099Z,58.60
2023-02-06T06:22:53.891Z,66.25
2023-02-06T06:25:20.813Z,64.13
2023-02-06T06:27:47.619Z,64.50
2023-02-06T06:30:15.043Z,67.03
2023-02-06T06:32:41.823Z,63.13
2023-02-06T06:35:09.077Z,76.35
2023-02-06T06:37:35.966Z,61.22
2023-02-06T06:40:02.760Z,68.47
2023-02-06T06:42:29.597Z,70.53
2023-02-06T06:44:56.371Z,72.65
2023-02-06T06:47:23.135Z,65.93
2023-02-06T06:49:49.921Z,64.45
2023-02-06T06:52:25.099Z,63.33
2023-02-06T06:54:53.246Z,77.28
2023-02-06T06:57:21.183Z,63.30
2023-02-06T06:59:48.379Z,59.78
2023-02-06T07:02:15.472Z,65.88
2023-02-06T07:04:42.590Z,77.60
2023-02-06T07:07:09.656Z,71.22
2023-02-06T07:09:36.394Z,55.78
2023-02-06T07:12:03.515Z,57.40
2023-02-06T07:14:30.391Z,58.92
2023-02-06T07:16:57.202Z,55.92
2023-02-06T07:19:24.014Z,68.57
2023-02-06T07:21:50.840Z,67.65
2023-02-06T07:24:17.681Z,67.03
2023-02-06T07:26:45.201Z,63.22
2023-02-06T07:29:12.033Z,70.75
2023-02-06T07:31:38.870Z,60.85
2023-02-06T07:34:05.692Z,64.20
2023-02-06T07:36:32.571Z,62.55
2023-02-06T07:38:59.377Z,63.55
2023-02-06T07:41:26.147Z,57.03
2023-02-06T07:43:55.036Z,52.78
2023-02-06T07:46:22.101Z,65.80
2023-02-06T07:48:49.000Z,70.80
2023-02-06T07:51:15.878Z,67.28
2023-02-06T07:56:33.666Z,65.20
2023-02-06T07:59:02.699Z,64.85
2023-02-06T08:01:30.157Z,61.58
2023-02-06T08:03:57.120Z,64.45
2023-02-06T08:06:26.246Z,72.32
2023-02-06T08:08:56.464Z,61.20
2023-02-06T08:11:30.405Z,74.43
2023-02-06T08:14:02.274Z,70.03
2023-02-06T08:16:29.115Z,76.10
2023-02-06T08:18:56.063Z,83.03
2023-02-06T08:21:25.635Z,90.32
2023-02-06T08:23:57.936Z,97.65
2023-02-06T08:26:26.100Z,100.32
2023-02-06T08:28:54.070Z,73.97
2023-02-06T08:31:23.230Z,77.63
2023-02-06T08:33:50.683Z,75.38
2023-02-06T08:36:20.033Z,77.82
2023-02-06T08:38:47.152Z,80.47
2023-02-06T08:41:22.155Z,78.65
2023-02-06T08:43:50.677Z,84.50
2023-02-06T08:46:19.072Z,80.28
2023-02-06T08:48:46.771Z,74.78
2023-02-06T08:51:13.918Z,83.15
2023-02-06T08:53:40.804Z,78.55
2023-02-06T08:56:10.140Z,86.15
2023-02-06T08:58:38.033Z,84.25
2023-02-06T09:01:19.106Z,80.20
2023-02-06T09:03:47.602Z,76.75
2023-02-06T09:06:16.042Z,74.68
2023-02-06T09:08:43.256Z,73.07
2023-02-06T09:11:15.775Z,83.75
2023-02-06T09:13:43.936Z,74.18
2023-02-06T09:16:12.118Z,74.80
2023-02-06T09:18:40.544Z,71.13
2023-02-06T09:21:11.727Z,70.50
2023-02-06T09:23:40.640Z,64.75
2023-02-06T09:26:07.411Z,78.50
2023-02-06T09:28:34.379Z,67.70
2023-02-06T09:31:01.497Z,73.07
2023-02-06T09:33:28.388Z,75.70
2023-02-06T09:36:11.636Z,59.40
2023-02-06T09:38:44.456Z,61.00
2023-02-06T09:41:46.327Z,74.00
2023-02-06T09:44:24.660Z,60.42
2023-02-06T09:47:24.271Z,63.22
2023-02-06T09:50:43.002Z,62.20
2023-02-06T09:53:15.882Z,64.32
2023-02-06T09:58:28.952Z,51.75
2023-02-06T10:01:07.626Z,59.83
2023-02-06T10:04:10.145Z,46.63
2023-02-06T10:06:41.372Z,45.83
2023-02-06T10:09:10.554Z,55.78
2023-02-06T10:11:52.897Z,56.03
2023-02-06T10:14:43.024Z,51.15
2023-02-06T10:17:15.749Z,54.13
2023-02-06T10:20:15.892Z,58.53
2023-02-06T10:23:10.354Z,58.80
2023-02-06T10:25:43.707Z,50.80
2023-02-06T10:28:25.892Z,41.67
2023-02-06T10:30:58.858Z,41.73
2023-02-06T10:33:45.384Z,47.70
2023-02-06T10:36:30.114Z,45.70
2023-02-06T10:39:22.760Z,41.78
2023-02-06T10:42:27.176Z,43.80
2023-02-06T10:45:20.139Z,45.40
2023-02-06T10:50:45.196Z,52.10
2023-02-06T10:53:27.776Z,58.50
2023-02-06T10:56:03.138Z,39.00
2023-02-06T10:58:44.611Z,47.50
2023-02-06T11:01:25.646Z,47.08
2023-02-06T11:04:23.965Z,41.33
2023-02-06T11:06:58.134Z,46.58
2023-02-06T11:09:25.139Z,48.78
2023-02-06T11:11:54.712Z,51.28
2023-02-06T11:14:32.025Z,55.15
2023-02-06T11:17:02.515Z,53.13
2023-02-06T11:19:31.700Z,60.28
2023-02-06T11:22:04.641Z,54.92
2023-02-06T11:27:02.041Z,46.20
2023-02-06T11:29:32.457Z,51.53
2023-02-06T11:32:01.881Z,49.33
2023-02-06T11:34:35.724Z,53.08
2023-02-06T11:37:05.517Z,54.58
2023-02-06T11:39:37.871Z,54.55
2023-02-06T11:42:13.837Z,49.38
2023-02-06T11:44:43.264Z,46.55
2023-02-06T11:47:32.952Z,53.15
2023-02-06T11:50:30.550Z,53.47
2023-02-06T11:53:18.118Z,53.22
2023-02-06T11:55:57.359Z,51.55
2023-02-06T11:58:27.253Z,47.58
2023-02-06T12:00:56.794Z,52.70
2023-02-06T12:03:50.333Z,55.05
2023-02-06T12:06:30.705Z,40.80
2023-02-06T12:09:00.211Z,46.25
2023-02-06T12:11:32.829Z,51.55
2023-02-06T12:14:36.138Z,43.17
2023-02-06T12:17:08.526Z,54.60
2023-02-06T12:19:48.913Z,54.90
2023-02-06T12:22:22.846Z,53.10
2023-02-06T12:24:55.509Z,48.92
2023-02-06T12:27:31.924Z,53.03
2023-02-06T12:30:30.490Z,43.28
2023-02-06T12:33:16.295Z,44.55
2023-02-06T12:35:59.644Z,44.55
2023-02-06T12:38:38.285Z,45.03
2023-02-06T12:41:40.507Z,43.65
2023-02-06T12:44:10.314Z,36.30
2023-02-06T12:46:38.023Z,37.53
2023-02-06T12:49:21.970Z,27.77
2023-02-06T12:52:21.006Z,47.20
2023-02-06T12:54:58.551Z,39.47
2023-02-06T12:57:29.561Z,37.72
2023-02-06T13:00:44.989Z,40.53
2023-02-06T13:03:23.679Z,42.45
2023-02-06T13:05:56.929Z,55.92
2023-02-06T13:08:45.118Z,42.35
2023-02-06T13:11:24.119Z,38.90
2023-02-06T13:14:00.722Z,49.40
2023-02-06T13:16:38.967Z,40.70
2023-02-06T13:19:06.070Z,39.65
2023-02-06T13:21:35.196Z,40.15
2023-02-06T13:24:01.949Z,38.22
2023-02-06T13:26:51.651Z,45.17
2023-02-06T13:29:38.633Z,33.03
2023-02-06T13:32:15.139Z,44.30
2023-02-06T13:34:45.045Z,42.42
2023-02-06T13:37:39.616Z,45.75
2023-02-06T13:40:25.627Z,40.67
2023-02-06T13:43:35.855Z,58.17
2023-02-06T13:46:09.400Z,50.72
2023-02-06T13:48:51.548Z,52.92
2023-02-06T13:51:30.549Z,39.58
2023-02-06T13:54:22.122Z,50.05
2023-02-06T13:57:32.598Z,45.50
2023-02-06T14:00:10.408Z,45.13
2023-02-06T14:02:44.317Z,48.22
2023-02-06T14:05:15.986Z,42.50
2023-02-06T14:08:01.303Z,43.35
2023-02-06T14:10:30.884Z,47.88
2023-02-06T14:13:39.350Z,45.80
2023-02-06T14:16:31.948Z,40.63
2023-02-06T14:19:17.663Z,42.80
2023-02-06T14:22:00.700Z,39.20
2023-02-06T14:24:45.465Z,39.33
2023-02-06T14:27:24.384Z,49.03
2023-02-06T14:29:54.406Z,39.80
2023-02-06T14:32:37.096Z,36.15
2023-02-06T14:35:39.483Z,33.67
2023-02-06T14:38:27.350Z,42.65
2023-02-06T14:40:57.007Z,31.90
2023-02-06T14:43:29.174Z,33.38
2023-02-06T14:46:07.594Z,38.50
2023-02-06T14:48:53.681Z,41.03
2023-02-06T14:51:31.446Z,34.83
2023-02-06T14:54:04.318Z,47.17
2023-02-06T14:56:32.369Z,34.55
2023-02-06T14:59:18.013Z,32.90
2023-02-06T15:01:48.057Z,28.92
2023-02-06T15:04:18.944Z,35.22
2023-02-06T15:07:00.727Z,35.53
2023-02-06T15:09:32.721Z,38.00
2023-02-06T15:12:21.266Z,39.77
2023-02-06T15:14:57.709Z,38.17
2023-02-06T15:17:26.874Z,47.38
2023-02-06T15:19:56.577Z,41.00
2023-02-06T15:22:28.225Z,40.70
2023-02-06T15:25:19.421Z,34.08
2023-02-06T15:27:46.324Z,47.17
2023-02-06T15:30:22.090Z,43.58
2023-02-06T15:32:52.138Z,38.88
2023-02-06T15:35:25.625Z,38.17
2023-02-06T15:37:54.025Z,41.58
2023-02-06T15:40:35.996Z,45.65
2023-02-06T15:43:03.655Z,35.10
2023-02-06T15:45:35.772Z,38.80
2023-02-06T15:48:16.032Z,41.03
2023-02-06T15:50:59.691Z,31.52
2023-02-06T15:53:38.654Z,40.70
2023-02-06T15:56:20.801Z,40.70
2023-02-06T15:58:49.530Z,41.72
2023-02-06T16:01:19.946Z,38.20
2023-02-06T16:03:53.255Z,32.17
2023-02-06T16:06:20.144Z,24.98
2023-02-06T16:08:53.858Z,30.52
2023-02-06T16:11:39.996Z,36.60
2023-02-06T16:14:07.108Z,41.22
2023-02-06T16:16:34.134Z,49.03
2023-02-06T16:19:01.036Z,40.65
2023-02-06T16:21:32.522Z,47.28
2023-02-06T16:24:06.723Z,51.42
2023-02-06T16:26:52.401Z,39.55
2023-02-06T16:29:32.487Z,42.13
2023-02-06T16:32:02.151Z,44.70
2023-02-06T16:34:38.624Z,41.40
2023-02-06T16:37:12.108Z,34.67
2023-02-06T16:39:42.261Z,44.42
2023-02-06T16:42:27.318Z,44.05
2023-02-06T16:45:01.503Z,39.17
2023-02-06T16:47:28.410Z,38.60
2023-02-06T16:49:55.261Z,39.97
2023-02-06T16:52:26.014Z,33.13
2023-02-06T16:54:55.910Z,32.50
2023-02-06T16:57:35.300Z,27.55
2023-02-06T17:00:06.129Z,26.02
2023-02-06T17:02:33.100Z,14.55
2023-02-06T17:04:59.937Z,25.63
2023-02-06T17:07:30.858Z,14.27
2023-02-06T17:09:59.011Z,16.20
2023-02-06T17:12:25.839Z,21.83
2023-02-06T17:14:52.604Z,22.55
2023-02-06T17:17:22.111Z,15.18
2023-02-06T17:19:50.291Z,27.65
2023-02-06T17:22:17.287Z,18.58
2023-02-06T17:24:44.379Z,15.15
2023-02-06T17:27:20.464Z,26.60
2023-02-06T17:29:47.919Z,17.58
2023-02-06T17:32:16.241Z,15.80
2023-02-06T17:34:43.144Z,11.00
2023-02-06T17:37:20.473Z,18.15
2023-02-06T17:39:49.517Z,17.02
2023-02-06T17:42:16.474Z,19.08
2023-02-06T17:44:43.928Z,16.23
2023-02-06T17:47:13.116Z,13.35
2023-02-06T17:49:39.993Z,12.93
2023-02-06T17:52:06.915Z,18.85
2023-02-06T17:54:34.034Z,15.80
2023-02-06T17:57:00.819Z,20.20
2023-02-06T17:59:28.735Z,20.25
2023-02-06T18:01:56.080Z,15.45
2023-02-06T18:04:24.616Z,21.75
2023-02-06T18:06:51.397Z,14.23
2023-02-06T18:09:18.304Z,14.73
2023-02-06T18:11:45.096Z,15.57
2023-02-06T18:14:12.101Z,17.35
2023-02-06T18:16:42.721Z,19.15
2023-02-06T18:19:10.450Z,15.57
2023-02-06T18:21:37.281Z,16.88
2023-02-06T18:24:05.069Z,17.42
2023-02-06T18:26:32.029Z,14.88
2023-02-06T18:28:58.826Z,18.63
2023-02-06T18:31:36.270Z,17.38
2023-02-06T18:34:07.737Z,20.08
2023-02-06T18:36:36.488Z,20.55
2023-02-06T18:39:04.979Z,21.95
2023-02-06T18:41:50.370Z,21.63
2023-02-06T18:44:17.275Z,18.77
2023-02-06T18:46:44.344Z,12.43
2023-02-06T18:49:11.252Z,15.05
2023-02-06T18:51:38.081Z,18.02
2023-02-06T18:54:05.144Z,22.92
2023-02-06T18:56:32.531Z,12.25
2023-02-06T18:58:59.520Z,16.80
2023-02-06T19:01:27.128Z,16.85
2023-02-06T19:03:54.182Z,16.67
2023-02-06T19:06:31.797Z,21.88
2023-02-06T19:08:59.583Z,20.67
2023-02-06T19:11:27.021Z,19.90
2023-02-06T19:13:54.468Z,18.80
2023-02-06T19:16:21.872Z,18.52
2023-02-06T19:18:49.667Z,18.35
2023-02-06T19:21:19.926Z,18.65
2023-02-06T19:23:52.586Z,20.60
2023-02-06T19:26:19.396Z,16.20
2023-02-06T19:28:46.238Z,15.70
2023-02-06T19:31:15.437Z,16.42
2023-02-06T19:33:42.384Z,21.85
2023-02-06T19:36:14.123Z,18.42
2023-02-06T19:38:42.162Z,15.88
2023-02-06T19:41:09.939Z,17.98
2023-02-06T19:43:37.432Z,24.20
2023-02-06T19:46:11.868Z,21.52
2023-02-06T19:48:41.167Z,23.00
2023-02-06T19:51:11.172Z,17.85
2023-02-06T19:53:45.090Z,19.42
2023-02-06T19:56:13.012Z,18.50
2023-02-06T19:58:39.955Z,21.55
2023-02-06T20:01:12.030Z,17.85
2023-02-06T20:03:39.399Z,21.55
2023-02-06T20:06:09.541Z,25.10
2023-02-06T20:08:37.303Z,23.33
2023-02-06T20:11:06.375Z,21.77
2023-02-06T20:13:34.246Z,25.80
2023-02-06T20:16:03.666Z,26.08
2023-02-06T20:18:35.337Z,21.98
2023-02-06T20:21:03.501Z,23.40
2023-02-06T20:23:30.548Z,24.52
2023-02-06T20:26:01.433Z,23.45
2023-02-06T20:28:28.725Z,20.77
2023-02-06T20:30:55.733Z,24.63
2023-02-06T20:33:22.702Z,24.35
2023-02-06T20:35:49.562Z,26.25
2023-02-06T20:38:18.311Z,25.70
2023-02-06T20:40:50.723Z,26.98
2023-02-06T20:43:17.661Z,27.27
2023-02-06T20:45:44.453Z,29.30
2023-02-06T20:48:11.258Z,29.55
2023-02-06T20:50:38.489Z,24.42
2023-02-06T20:53:05.432Z,27.40
2023-02-06T20:55:32.325Z,22.83
2023-02-06T20:57:59.173Z,23.48
2023-02-06T21:00:26.012Z,30.30
2023-02-06T21:02:53.348Z,22.98
2023-02-06T21:05:20.415Z,28.65
2023-02-06T21:07:47.260Z,31.17
2023-02-06T21:10:14.383Z,27.83
2023-02-06T21:12:41.215Z,25.73
2023-02-06T21:15:08.586Z,25.45
2023-02-06T21:17:35.497Z,27.77
2023-02-06T21:20:02.454Z,26.60
2023-02-06T21:22:29.324Z,30.85
2023-02-06T21:24:56.599Z,30.15
2023-02-06T21:27:23.452Z,29.63
2023-02-06T21:29:50.316Z,19.75
2023-02-06T21:32:17.289Z,24.50
2023-02-06T21:34:44.187Z,23.60
2023-02-06T21:37:11.300Z,29.95
2023-02-06T21:39:41.290Z,21.48
2023-02-06T21:42:09.881Z,28.27
2023-02-06T21:44:37.595Z,24.52
2023-02-06T21:47:05.105Z,28.38
2023-02-06T21:49:32.114Z,26.08
2023-02-06T21:51:59.783Z,27.98
2023-02-06T21:54:26.754Z,27.77
2023-02-06T21:56:54.001Z,31.50
2023-02-06T21:59:20.836Z,31.55
2023-02-06T22:01:47.822Z,25.13
2023-02-06T22:04:14.868Z,29.08
2023-02-06T22:06:41.798Z,25.00
2023-02-06T22:09:15.217Z,23.73
2023-02-06T22:11:42.548Z,20.52
2023-02-06T22:14:17.650Z,23.42
2023-02-06T22:16:46.827Z,28.02
2023-02-06T22:19:14.830Z,26.80
2023-02-06T22:21:42.299Z,25.85
2023-02-06T22:24:11.266Z,27.80
2023-02-06T22:26:39.439Z,24.25
2023-02-06T22:29:09.868Z,24.77
2023-02-06T22:31:38.633Z,31.05
2023-02-06T22:34:05.814Z,25.42
2023-02-06T22:36:33.766Z,32.78
2023-02-06T22:39:06.518Z,28.38
2023-02-06T22:44:00.591Z,25.70
2023-02-06T22:46:31.426Z,22.90
2023-02-06T22:48:58.858Z,36.33
2023-02-06T22:51:26.231Z,37.70
2023-02-06T22:54:08.329Z,37.65
2023-02-06T22:56:37.804Z,31.02
2023-02-06T22:59:37.119Z,32.40
2023-02-06T23:02:04.035Z,34.03
2023-02-06T23:04:34.717Z,40.75
2023-02-06T23:07:01.948Z,36.38
2023-02-06T23:09:32.284Z,31.60
2023-02-06T23:11:59.781Z,32.38
2023-02-06T23:14:27.714Z,41.55
2023-02-06T23:16:54.647Z,31.63
2023-02-06T23:19:21.759Z,32.00
2023-02-06T23:21:51.180Z,27.50
2023-02-06T23:24:18.554Z,32.22
2023-02-06T23:26:47.448Z,38.35
2023-02-06T23:29:19.166Z,33.65
2023-02-06T23:31:46.915Z,31.23
2023-02-06T23:34:14.561Z,35.53
2023-02-06T23:36:42.521Z,25.88
2023-02-06T23:39:09.359Z,29.15
2023-02-06T23:41:36.196Z,27.45
2023-02-06T23:44:05.875Z,30.30
2023-02-06T23:46:36.316Z,28.67
2023-02-06T23:49:03.536Z,32.53
2023-02-06T23:51:30.530Z,28.27
2023-02-06T23:53:57.297Z,36.97
2023-02-06T23:56:27.500Z,25.90
2023-02-06T23:58:56.436Z,32.60
